createdAt,value
2018-07-03T00:37:22.815Z,43.50
2018-07-03T00:47:59.608Z,43.10
2018-07-03T00:56:06.020Z,44.00
2018-07-03T01:33:27.217Z,44.50
2018-07-03T01:39:05.801Z,44.20
2018-07-03T01:41:40.631Z,43.90
2018-07-03T01:44:20.270Z,43.90
2018-07-03T01:47:00.354Z,43.90
2018-07-03T01:49:57.116Z,44.10
2018-07-03T01:52:41.720Z,43.50
2018-07-03T01:55:16.822Z,43.70
2018-07-03T01:57:59.992Z,43.60
2018-07-03T02:00:52.458Z,44.10
2018-07-03T02:04:01.695Z,44.50
2018-07-03T02:47:53.027Z,44.80
2018-07-03T02:50:23.919Z,44.70
2018-07-03T02:52:54.234Z,44.10
2018-07-03T03:01:19.653Z,43.60
2018-07-03T03:03:51.659Z,44.00
2018-07-03T03:10:00.757Z,44.50
2018-07-03T03:18:28.873Z,44.30
2018-07-03T03:21:31.062Z,44.20
2018-07-03T03:24:24.960Z,44.20
2018-07-03T03:30:21.081Z,43.70
2018-07-03T03:32:51.834Z,43.40
2018-07-03T03:35:35.743Z,43.00
2018-07-03T03:38:06.891Z,43.00
2018-07-03T03:40:44.619Z,43.40
2018-07-03T03:43:17.512Z,42.70
2018-07-03T03:45:49.636Z,42.20
2018-07-03T03:48:26.853Z,42.20
2018-07-03T03:50:59.339Z,42.40
2018-07-03T03:56:35.616Z,42.90
2018-07-03T03:59:09.843Z,42.80
2018-07-03T04:01:43.327Z,43.20
2018-07-03T04:04:34.855Z,43.10
2018-07-03T04:07:07.025Z,43.10
2018-07-03T04:09:43.591Z,43.40
2018-07-03T04:12:24.911Z,43.10
2018-07-03T04:15:37.421Z,43.50
2018-07-03T04:40:16.173Z,41.80
2018-07-03T04:52:53.777Z,41.40
2018-07-03T04:55:56.043Z,40.50
2018-07-03T04:58:31.765Z,40.60
2018-07-03T05:01:02.421Z,40.70
2018-07-03T18:44:52.011Z,58.40
2018-07-03T18:54:34.283Z,56.70
2018-07-03T18:57:16.367Z,56.90
2018-07-03T19:00:24.561Z,57.00
2018-07-03T19:03:55.452Z,56.90
2018-07-03T19:59:37.360Z,60.00
2018-07-03T20:02:31.312Z,60.50
2018-07-03T20:05:07.033Z,61.70
2018-07-03T20:13:00.302Z,62.10
2018-07-03T20:15:37.010Z,62.20
2018-07-03T20:18:23.501Z,62.20
2018-07-03T21:11:06.566Z,62.80
2018-07-03T21:14:19.584Z,64.60
2018-07-03T21:16:50.625Z,64.80
2018-07-03T21:19:28.632Z,65.40
2018-07-03T21:22:02.759Z,66.00
2018-07-03T21:24:34.188Z,66.20
2018-07-03T21:27:05.600Z,66.50
2018-07-03T21:29:39.389Z,66.90
2018-07-03T21:32:14.456Z,67.10
2018-07-03T21:34:47.364Z,67.00
2018-07-03T21:37:19.062Z,67.30
2018-07-03T21:39:51.856Z,67.60
2018-07-03T21:42:33.430Z,67.80
2018-07-03T21:45:04.938Z,68.10
2018-07-03T21:47:43.400Z,67.60
2018-07-03T21:50:18.341Z,67.20
2018-07-03T21:52:47.793Z,67.10
2018-07-03T21:55:18.835Z,67.80
2018-07-03T21:57:49.858Z,67.90
2018-07-03T22:00:44.777Z,67.30
2018-07-03T22:03:41.746Z,67.50
2018-07-03T22:06:15.042Z,67.70
2018-07-03T22:08:47.870Z,67.90
2018-07-03T22:14:23.306Z,68.30
2018-07-03T22:16:54.239Z,68.50
2018-07-03T22:22:02.967Z,69.40
2018-07-03T22:24:45.337Z,69.70
2018-07-03T22:27:37.651Z,69.80
2018-07-03T22:30:07.957Z,70.00
2018-07-03T22:32:39.612Z,70.10
2018-07-03T22:35:11.459Z,69.70
2018-07-03T22:37:43.617Z,69.60
2018-07-03T22:40:18.830Z,69.50
2018-07-03T22:43:21.698Z,69.90
2018-07-03T22:45:58.476Z,69.70
2018-07-03T22:48:32.125Z,69.40
2018-07-03T22:51:09.334Z,69.20
2018-07-03T22:53:40.443Z,69.30
2018-07-03T22:56:13.294Z,69.60
2018-07-03T22:58:45.878Z,69.30
2018-07-03T23:01:17.922Z,69.30
2018-07-03T23:03:51.815Z,69.20
2018-07-03T23:06:29.172Z,69.10
2018-07-03T23:08:59.080Z,69.40
2018-07-03T23:11:31.291Z,69.60
2018-07-03T23:14:03.396Z,69.60
2018-07-03T23:16:38.518Z,69.80
2018-07-03T23:23:58.419Z,70.00
2018-07-03T23:26:27.828Z,70.70
2018-07-03T23:28:57.859Z,71.40
2018-07-03T23:31:30.672Z,71.30
2018-07-03T23:34:02.939Z,71.00
2018-07-03T23:36:34.089Z,71.40
2018-07-03T23:39:09.667Z,71.70
2018-07-03T23:41:41.344Z,72.00
2018-07-03T23:44:13.176Z,71.60
2018-07-03T23:46:53.527Z,70.50
2018-07-03T23:49:34.000Z,69.70
2018-07-03T23:52:14.794Z,69.50
2018-07-03T23:54:54.914Z,69.20
2018-07-03T23:57:37.072Z,69.30
